createdAt,value
2022-10-02T00:01:59.603Z,94.34
2022-10-02T00:04:33.453Z,94.22
2022-10-02T00:07:05.838Z,94.18
2022-10-02T00:09:38.614Z,94.36
2022-10-02T00:12:08.628Z,94.03
2022-10-02T00:14:38.407Z,94.08
2022-10-02T00:17:05.108Z,94.25
2022-10-02T00:19:31.681Z,94.20
2022-10-02T00:22:04.023Z,93.98
2022-10-02T00:24:44.437Z,94.24
2022-10-02T00:27:23.021Z,94.17
2022-10-02T00:29:52.446Z,93.77
2022-10-02T00:32:18.747Z,94.13
2022-10-02T00:34:55.769Z,94.37
2022-10-02T00:37:30.369Z,94.54
2022-10-02T00:40:08.962Z,94.48
2022-10-02T00:42:47.409Z,94.50
2022-10-02T00:45:51.338Z,94.34
2022-10-02T00:48:26.790Z,94.10
2022-10-02T00:51:08.185Z,93.77
2022-10-02T00:53:59.358Z,93.59
2022-10-02T00:56:44.003Z,93.45
2022-10-02T00:59:26.709Z,93.29
2022-10-02T01:02:24.264Z,93.22
2022-10-02T01:04:50.673Z,93.55
2022-10-02T01:07:17.065Z,93.66
2022-10-02T01:09:44.486Z,93.82
2022-10-02T01:12:11.574Z,93.73
2022-10-02T01:14:39.825Z,93.76
2022-10-02T01:17:20.180Z,93.78
2022-10-02T01:19:46.643Z,93.89
2022-10-02T01:22:34.381Z,93.93
2022-10-02T01:25:04.696Z,93.94
2022-10-02T01:27:33.671Z,93.93
2022-10-02T01:30:04.608Z,94.11
2022-10-02T01:32:33.211Z,94.13
2022-10-02T01:35:00.775Z,94.20
2022-10-02T01:37:31.247Z,94.37
2022-10-02T01:40:04.297Z,94.48
2022-10-02T01:42:31.658Z,94.49
2022-10-02T01:44:58.496Z,94.59
2022-10-02T01:48:11.297Z,95.15
2022-10-02T01:51:20.544Z,95.37
2022-10-02T01:53:50.341Z,95.40
2022-10-02T01:56:49.134Z,95.71
2022-10-02T01:59:18.128Z,95.65
2022-10-02T02:01:51.583Z,95.84
2022-10-02T02:04:28.004Z,95.89
2022-10-02T02:07:13.043Z,96.11
2022-10-02T02:09:47.645Z,96.19
2022-10-02T02:12:49.741Z,96.19
2022-10-02T02:15:20.417Z,96.16
2022-10-02T02:17:53.585Z,96.40
2022-10-02T02:20:29.613Z,96.48
2022-10-02T02:23:04.573Z,96.47
2022-10-02T02:25:34.265Z,96.72
2022-10-02T02:28:06.118Z,96.81
2022-10-02T02:30:35.957Z,96.59
2022-10-02T02:33:07.269Z,96.67
2022-10-02T02:35:45.741Z,96.90
2022-10-02T02:38:24.751Z,97.09
2022-10-02T02:40:51.776Z,97.15
2022-10-02T02:43:28.209Z,97.13
2022-10-02T02:46:04.691Z,97.26
2022-10-02T02:48:42.642Z,97.41
2022-10-02T02:51:15.157Z,97.65
2022-10-02T02:53:44.215Z,98.03
2022-10-02T02:56:14.379Z,97.97
2022-10-02T02:58:51.572Z,98.12
2022-10-02T03:01:18.124Z,98.15
2022-10-02T03:03:44.489Z,98.40
2022-10-02T03:06:17.018Z,98.31
2022-10-02T03:08:43.988Z,98.32
2022-10-02T03:11:39.279Z,98.43
2022-10-02T03:14:22.853Z,98.27
2022-10-02T03:17:02.266Z,98.32
2022-10-02T03:19:47.777Z,98.03
2022-10-02T03:22:43.359Z,98.33
2022-10-02T03:25:15.478Z,98.23
2022-10-02T03:27:54.862Z,98.08
2022-10-02T03:30:22.017Z,98.23
2022-10-02T03:32:53.369Z,97.86
2022-10-02T03:35:22.508Z,97.79
2022-10-02T03:37:52.637Z,97.89
2022-10-02T03:40:25.877Z,97.84
2022-10-02T03:42:53.731Z,98.01
2022-10-02T03:45:46.233Z,97.99
2022-10-02T03:48:06.509Z,98.15
2022-10-02T03:50:36.202Z,97.96
2022-10-02T03:53:12.965Z,98.14
2022-10-02T03:55:42.758Z,98.18
2022-10-02T03:58:15.816Z,98.36
2022-10-02T04:00:58.410Z,98.33
2022-10-02T04:03:33.573Z,98.40
2022-10-02T04:06:05.138Z,98.48
2022-10-02T04:08:36.925Z,98.59
2022-10-02T04:11:18.812Z,98.51
2022-10-02T04:13:50.394Z,98.58
2022-10-02T04:16:24.233Z,98.75
2022-10-02T04:18:57.553Z,98.68
2022-10-02T04:21:40.265Z,98.74
2022-10-02T04:24:21.652Z,98.50
2022-10-02T04:27:00.252Z,98.71
2022-10-02T04:29:31.989Z,98.80
2022-10-02T04:32:11.898Z,98.66
2022-10-02T04:34:39.116Z,98.72
2022-10-02T04:37:48.140Z,98.48
2022-10-02T04:40:27.672Z,98.58
2022-10-02T04:42:53.948Z,98.77
2022-10-02T04:45:41.861Z,98.46
2022-10-02T04:48:11.317Z,98.58
2022-10-02T04:50:57.889Z,98.37
2022-10-02T04:53:53.694Z,98.18
2022-10-02T04:56:38.214Z,98.18
2022-10-02T04:59:32.374Z,98.09
2022-10-02T05:02:16.065Z,97.95
2022-10-02T05:04:42.422Z,98.28
2022-10-02T05:07:24.151Z,98.15
2022-10-02T05:10:16.743Z,98.11
2022-10-02T05:13:16.451Z,98.40
2022-10-02T05:15:57.479Z,98.61
2022-10-02T05:18:38.996Z,98.70
2022-10-02T05:21:27.134Z,99.04
2022-10-02T05:23:59.239Z,98.98
2022-10-02T05:26:41.477Z,99.22
2022-10-02T05:29:13.698Z,99.37
2022-10-02T05:32:15.635Z,99.46
2022-10-02T05:35:19.457Z,99.52
2022-10-02T05:38:08.934Z,99.78
2022-10-02T05:40:47.724Z,99.72
2022-10-02T05:43:42.263Z,99.75
2022-10-02T05:46:16.191Z,99.86
2022-10-02T05:48:52.779Z,99.92
2022-10-02T05:51:31.566Z,99.88
2022-10-02T05:54:03.937Z,99.72
2022-10-02T05:56:40.000Z,99.86
2022-10-02T05:59:06.621Z,99.69
2022-10-02T06:01:46.469Z,99.64
2022-10-02T06:04:29.238Z,99.54
2022-10-02T06:07:01.049Z,99.57
2022-10-02T06:09:29.664Z,99.46
2022-10-02T06:11:58.863Z,99.50
2022-10-02T06:14:33.530Z,99.40
2022-10-02T06:17:14.225Z,99.43
2022-10-02T06:19:50.116Z,99.61
2022-10-02T06:22:21.090Z,99.41
2022-10-02T06:24:53.198Z,99.44
2022-10-02T06:27:44.426Z,99.21
2022-10-02T06:30:14.217Z,99.21
2022-10-02T06:32:40.545Z,99.39
2022-10-02T06:35:13.144Z,99.27
2022-10-02T06:37:58.604Z,99.27
2022-10-02T06:40:52.763Z,99.50
2022-10-02T06:43:58.222Z,99.20
2022-10-02T06:46:52.339Z,99.17
2022-10-02T06:49:40.574Z,99.14
2022-10-02T06:52:32.267Z,99.07
2022-10-02T06:55:41.957Z,98.97
2022-10-02T06:58:25.229Z,99.00
2022-10-02T07:01:29.945Z,99.12
2022-10-02T07:04:26.408Z,99.23
2022-10-02T07:07:02.189Z,99.21
2022-10-02T07:09:34.118Z,99.01
2022-10-02T07:12:05.890Z,99.27
2022-10-02T07:14:51.111Z,99.16
2022-10-02T07:17:36.282Z,99.05
2022-10-02T07:20:22.907Z,98.96
2022-10-02T07:23:07.761Z,98.92
2022-10-02T07:25:58.436Z,98.88
2022-10-02T07:28:31.806Z,98.65
2022-10-02T07:31:07.899Z,98.45
2022-10-02T07:33:47.297Z,98.23
2022-10-02T07:36:37.756Z,98.22
2022-10-02T07:39:37.267Z,98.23
2022-10-02T07:42:36.823Z,98.01
2022-10-02T07:45:26.064Z,97.90
2022-10-02T07:48:19.679Z,97.73
2022-10-02T07:51:00.314Z,97.67
2022-10-02T07:53:51.481Z,97.81
2022-10-02T07:56:22.567Z,97.54
2022-10-02T07:58:57.396Z,97.34
2022-10-02T08:01:33.455Z,97.18
2022-10-02T08:04:22.297Z,96.88
2022-10-02T08:07:01.662Z,96.80
2022-10-02T08:09:43.961Z,95.89
2022-10-02T08:12:34.673Z,95.65
2022-10-02T08:15:02.413Z,95.36
2022-10-02T08:17:43.312Z,94.82
2022-10-02T08:20:29.478Z,94.60
2022-10-02T08:23:23.478Z,94.01
2022-10-02T08:26:06.577Z,93.94
2022-10-02T08:28:40.547Z,93.94
2022-10-02T08:31:12.273Z,93.77
2022-10-02T08:33:39.330Z,93.57
2022-10-02T08:36:27.033Z,93.55
2022-10-02T08:39:10.928Z,93.34
2022-10-02T08:42:10.625Z,92.79
2022-10-02T08:45:08.028Z,92.66
2022-10-02T08:48:05.290Z,92.60
2022-10-02T08:51:00.809Z,91.92
2022-10-02T08:53:45.654Z,91.70
2022-10-02T08:56:38.285Z,91.19
2022-10-02T08:59:07.574Z,90.96
2022-10-02T09:01:44.635Z,90.46
2022-10-02T09:04:35.974Z,90.02
2022-10-02T09:07:28.321Z,89.07
2022-10-02T09:10:13.321Z,88.69
2022-10-02T09:13:11.036Z,88.23
2022-10-02T09:15:52.538Z,87.16
2022-10-02T09:18:43.736Z,86.96
2022-10-02T09:21:22.834Z,87.15
2022-10-02T09:24:22.502Z,85.78
2022-10-02T09:27:08.026Z,86.04
2022-10-02T09:30:05.077Z,86.20
2022-10-02T09:32:43.344Z,85.79
2022-10-02T09:35:37.323Z,85.88
2022-10-02T09:38:27.146Z,85.94
2022-10-02T09:41:24.372Z,84.44
2022-10-02T09:44:29.034Z,84.12
2022-10-02T09:47:21.007Z,83.53
2022-10-02T09:50:06.003Z,82.87
2022-10-02T09:52:50.891Z,82.74
2022-10-02T09:55:50.015Z,81.51
2022-10-02T09:58:59.853Z,81.03
2022-10-02T10:01:29.178Z,80.92
2022-10-02T10:04:54.130Z,80.30
2022-10-02T10:07:35.507Z,80.47
2022-10-02T10:10:30.677Z,78.53
2022-10-02T10:13:22.184Z,78.04
2022-10-02T10:16:19.065Z,78.17
2022-10-02T10:19:23.666Z,78.68
2022-10-02T10:22:35.981Z,78.56
2022-10-02T10:25:43.216Z,78.66
2022-10-02T10:28:44.179Z,77.77
2022-10-02T10:31:25.291Z,76.96
2022-10-02T10:34:16.798Z,75.60
2022-10-02T10:37:16.414Z,74.59
2022-10-02T10:39:57.499Z,74.70
2022-10-02T10:42:26.555Z,72.92
2022-10-02T10:45:07.728Z,72.33
2022-10-02T10:47:57.401Z,72.05
2022-10-02T10:50:48.989Z,71.83
2022-10-02T10:53:24.410Z,72.07
2022-10-02T10:55:59.101Z,70.69
2022-10-02T10:58:43.109Z,70.45
2022-10-02T11:01:48.940Z,71.17
2022-10-02T11:04:35.158Z,72.62
2022-10-02T11:07:21.962Z,72.53
2022-10-02T11:10:07.559Z,72.43
2022-10-02T11:12:52.245Z,73.78
2022-10-02T11:15:24.938Z,74.80
2022-10-02T11:18:00.772Z,74.42
2022-10-02T11:20:29.978Z,74.57
2022-10-02T11:23:19.293Z,73.84
2022-10-02T11:26:08.611Z,72.90
2022-10-02T11:29:14.013Z,72.04
2022-10-02T11:32:34.223Z,70.43
2022-10-02T11:35:03.183Z,71.72
2022-10-02T11:37:50.723Z,69.67
2022-10-02T11:40:19.851Z,68.17
2022-10-02T11:42:55.839Z,70.04
2022-10-02T11:45:32.623Z,69.44
2022-10-02T11:48:45.553Z,69.78
2022-10-02T11:51:28.909Z,69.67
2022-10-02T11:54:03.245Z,69.77
2022-10-02T11:57:02.657Z,68.80
2022-10-02T11:59:29.675Z,67.94
2022-10-02T12:02:20.025Z,66.98
2022-10-02T12:05:19.266Z,67.62
2022-10-02T12:08:07.685Z,67.41
2022-10-02T12:10:48.574Z,66.99
2022-10-02T12:13:35.938Z,66.46
2022-10-02T12:16:17.582Z,65.82
2022-10-02T12:19:07.065Z,65.70
2022-10-02T12:22:11.855Z,61.15
2022-10-02T12:25:30.772Z,60.34
2022-10-02T12:28:20.069Z,62.31
2022-10-02T12:31:22.049Z,62.15
2022-10-02T12:33:58.159Z,63.05
2022-10-02T12:36:33.950Z,63.28
2022-10-02T12:39:22.294Z,63.39
2022-10-02T12:42:00.551Z,62.69
2022-10-02T12:44:44.749Z,64.12
2022-10-02T12:47:28.998Z,62.97
2022-10-02T12:50:11.114Z,63.62
2022-10-02T12:52:55.298Z,62.62
2022-10-02T12:55:47.635Z,61.82
2022-10-02T12:58:35.431Z,61.28
2022-10-02T13:01:30.509Z,60.06
2022-10-02T13:04:16.292Z,59.38
2022-10-02T13:07:07.495Z,58.92
2022-10-02T13:09:57.972Z,59.56
2022-10-02T13:12:32.653Z,58.77
2022-10-02T13:15:02.858Z,57.86
2022-10-02T13:17:46.225Z,56.35
2022-10-02T13:20:28.272Z,56.44
2022-10-02T13:23:32.018Z,56.54
2022-10-02T13:26:16.542Z,56.16
2022-10-02T13:28:58.105Z,56.13
2022-10-02T13:31:57.703Z,53.80
2022-10-02T13:34:27.230Z,53.23
2022-10-02T13:37:22.683Z,54.40
2022-10-02T13:40:21.828Z,57.42
2022-10-02T13:43:07.559Z,58.36
2022-10-02T13:46:17.715Z,59.26
2022-10-02T13:49:02.305Z,58.64
2022-10-02T13:51:43.452Z,59.74
2022-10-02T13:54:50.103Z,60.26
2022-10-02T13:57:51.136Z,60.64
2022-10-02T14:00:37.195Z,59.03
2022-10-02T14:03:13.296Z,55.87
2022-10-02T14:05:57.066Z,50.88
2022-10-02T14:08:52.179Z,51.43
2022-10-02T14:11:30.532Z,50.97
2022-10-02T14:14:11.821Z,49.76
2022-10-02T14:16:44.809Z,51.02
2022-10-02T14:19:43.409Z,51.13
2022-10-02T14:22:40.776Z,49.72
2022-10-02T14:25:20.330Z,48.71
2022-10-02T14:28:07.588Z,49.27
2022-10-02T14:31:04.194Z,49.26
2022-10-02T14:33:58.754Z,49.84
2022-10-02T14:36:40.648Z,49.25
2022-10-02T14:39:30.471Z,51.38
2022-10-02T14:42:15.479Z,49.74
2022-10-02T14:45:21.249Z,50.79
2022-10-02T14:48:15.481Z,51.11
2022-10-02T14:51:22.313Z,51.14
2022-10-02T14:54:07.782Z,51.42
2022-10-02T14:57:19.392Z,53.33
2022-10-02T14:59:58.917Z,52.42
2022-10-02T15:02:47.391Z,53.83
2022-10-02T15:05:38.744Z,54.66
2022-10-02T15:08:15.298Z,55.03
2022-10-02T15:10:42.481Z,55.40
2022-10-02T15:13:12.886Z,54.16
2022-10-02T15:16:33.324Z,54.96
2022-10-02T15:19:55.629Z,55.29
2022-10-02T15:22:27.185Z,55.83
2022-10-02T15:24:57.164Z,55.26
2022-10-02T15:27:48.436Z,56.14
2022-10-02T15:30:26.058Z,56.66
2022-10-02T15:33:10.878Z,56.82
2022-10-02T15:36:01.528Z,57.25
2022-10-02T15:38:48.288Z,57.27
2022-10-02T15:41:26.394Z,56.89
2022-10-02T15:44:24.537Z,56.65
2022-10-02T15:47:03.504Z,57.66
2022-10-02T15:50:06.476Z,57.85
2022-10-02T15:52:52.534Z,57.89
2022-10-02T15:55:41.490Z,58.52
2022-10-02T15:58:31.199Z,58.68
2022-10-02T16:01:17.705Z,59.38
2022-10-02T16:04:25.230Z,59.77
2022-10-02T16:07:39.820Z,60.00
2022-10-02T16:10:31.893Z,59.97
2022-10-02T16:13:19.188Z,60.34
2022-10-02T16:15:54.376Z,60.52
2022-10-02T16:18:39.044Z,61.15
2022-10-02T16:21:12.610Z,61.40
2022-10-02T16:24:03.009Z,61.52
2022-10-02T16:27:08.388Z,62.13
2022-10-02T16:29:49.904Z,62.41
2022-10-02T16:32:37.509Z,62.93
2022-10-02T16:35:20.235Z,63.21
2022-10-02T16:37:59.890Z,63.61
2022-10-02T16:41:03.717Z,63.98
2022-10-02T16:43:43.110Z,64.19
2022-10-02T16:46:24.630Z,64.58
2022-10-02T16:49:19.606Z,64.77
2022-10-02T16:52:14.842Z,65.23
2022-10-02T16:54:47.194Z,65.47
2022-10-02T16:57:27.218Z,66.20
2022-10-02T17:00:05.334Z,66.74
2022-10-02T17:02:37.622Z,66.97
2022-10-02T17:05:13.214Z,67.33
2022-10-02T17:08:20.097Z,67.30
2022-10-02T17:10:46.518Z,67.83
2022-10-02T17:13:27.183Z,67.99
2022-10-02T17:16:24.232Z,68.40
2022-10-02T17:19:37.280Z,68.79
2022-10-02T17:22:25.018Z,69.12
2022-10-02T17:25:14.794Z,69.72
2022-10-02T17:27:57.805Z,69.66
2022-10-02T17:30:27.340Z,70.34
2022-10-02T17:33:15.449Z,70.47
2022-10-02T17:35:50.822Z,70.80
2022-10-02T17:38:36.822Z,71.12
2022-10-02T17:41:15.026Z,71.06
2022-10-02T17:43:50.647Z,71.51
2022-10-02T17:46:19.752Z,71.45
2022-10-02T17:49:21.615Z,72.16
2022-10-02T17:51:53.885Z,71.95
2022-10-02T17:55:05.775Z,72.74
2022-10-02T17:57:50.158Z,73.39
2022-10-02T18:00:23.849Z,73.40
2022-10-02T18:03:43.256Z,73.73
2022-10-02T18:06:28.411Z,73.79
2022-10-02T18:09:12.943Z,74.13
2022-10-02T18:12:11.749Z,74.40
2022-10-02T18:15:00.030Z,74.79
2022-10-02T18:17:29.548Z,75.01
2022-10-02T18:20:34.746Z,75.13
2022-10-02T18:23:15.931Z,75.45
2022-10-02T18:25:59.988Z,75.68
2022-10-02T18:29:12.650Z,76.16
2022-10-02T18:31:56.095Z,76.47
2022-10-02T18:34:43.857Z,76.49
2022-10-02T18:37:25.612Z,76.66
2022-10-02T18:40:04.794Z,77.14
2022-10-02T18:42:43.400Z,77.28
2022-10-02T18:45:29.050Z,77.81
2022-10-02T18:48:18.718Z,77.91
2022-10-02T18:51:04.057Z,78.45
2022-10-02T18:53:58.208Z,78.83
2022-10-02T18:56:42.790Z,79.15
2022-10-02T18:59:32.636Z,79.26
2022-10-02T19:02:11.908Z,79.32
2022-10-02T19:05:08.383Z,79.46
2022-10-02T19:07:48.451Z,79.99
2022-10-02T19:10:29.522Z,80.52
2022-10-02T19:13:18.582Z,80.59
2022-10-02T19:15:46.602Z,80.61
2022-10-02T19:18:22.381Z,81.02
2022-10-02T19:21:08.913Z,81.34
2022-10-02T19:23:40.924Z,81.67
2022-10-02T19:26:18.421Z,81.83
2022-10-02T19:28:50.460Z,82.04
2022-10-02T19:31:29.415Z,82.22
2022-10-02T19:34:06.865Z,81.84
2022-10-02T19:36:54.917Z,81.77
2022-10-02T19:39:30.841Z,82.10
2022-10-02T19:42:01.200Z,82.26
2022-10-02T19:44:31.148Z,82.54
2022-10-02T19:47:01.277Z,83.02
2022-10-02T19:49:32.231Z,83.37
2022-10-02T19:51:58.623Z,83.92
2022-10-02T19:54:31.975Z,84.19
2022-10-02T19:57:07.545Z,84.42
2022-10-02T19:59:41.966Z,84.83
2022-10-02T20:02:24.850Z,85.12
2022-10-02T20:04:54.019Z,85.19
2022-10-02T20:07:24.422Z,85.52
2022-10-02T20:10:03.734Z,85.94
2022-10-02T20:12:36.977Z,85.97
2022-10-02T20:15:39.756Z,86.16
2022-10-02T20:18:07.504Z,86.42
2022-10-02T20:20:37.020Z,86.48
2022-10-02T20:23:10.972Z,86.16
2022-10-02T20:25:46.542Z,86.57
2022-10-02T20:28:45.975Z,86.57
2022-10-02T20:31:35.100Z,86.71
2022-10-02T20:34:09.357Z,86.50
2022-10-02T20:36:47.901Z,86.35
2022-10-02T20:39:19.573Z,86.54
2022-10-02T20:42:09.802Z,86.67
2022-10-02T20:44:37.730Z,86.73
2022-10-02T20:47:38.000Z,87.28
2022-10-02T20:50:13.498Z,87.28
2022-10-02T20:53:07.794Z,87.36
2022-10-02T20:55:49.886Z,87.12
2022-10-02T20:58:30.894Z,87.42
2022-10-02T21:01:09.382Z,87.56
2022-10-02T21:03:59.342Z,87.41
2022-10-02T21:07:04.141Z,87.59
2022-10-02T21:09:52.630Z,87.40
2022-10-02T21:12:44.366Z,87.91
2022-10-02T21:15:32.182Z,88.07
2022-10-02T21:18:04.647Z,88.06
2022-10-02T21:20:58.677Z,88.06
2022-10-02T21:23:39.847Z,87.98
2022-10-02T21:26:27.978Z,88.30
2022-10-02T21:29:16.356Z,88.27
2022-10-02T21:32:04.777Z,88.36
2022-10-02T21:34:53.960Z,88.16
2022-10-02T21:37:38.321Z,88.22
2022-10-02T21:40:29.553Z,88.21
2022-10-02T21:43:11.611Z,88.05
2022-10-02T21:46:09.115Z,87.91
2022-10-02T21:48:52.049Z,87.87
2022-10-02T21:51:40.811Z,88.22
2022-10-02T21:54:33.475Z,88.17
2022-10-02T21:57:43.408Z,88.62
2022-10-02T22:00:21.674Z,88.33
2022-10-02T22:03:10.145Z,88.51
2022-10-02T22:06:07.985Z,88.65
2022-10-02T22:08:51.473Z,88.63
2022-10-02T22:11:54.943Z,88.90
2022-10-02T22:14:27.480Z,88.85
2022-10-02T22:17:07.668Z,88.85
2022-10-02T22:19:59.878Z,88.94
2022-10-02T22:22:47.586Z,89.09
2022-10-02T22:25:27.036Z,89.33
2022-10-02T22:27:59.430Z,89.41
2022-10-02T22:30:29.105Z,89.38
2022-10-02T22:33:21.537Z,89.57
2022-10-02T22:36:19.973Z,89.96
2022-10-02T22:38:51.147Z,89.67
2022-10-02T22:41:38.483Z,89.88
2022-10-02T22:44:17.905Z,90.06
2022-10-02T22:46:50.768Z,90.23
2022-10-02T22:49:43.083Z,90.47
2022-10-02T22:52:19.969Z,90.42
2022-10-02T22:55:24.056Z,90.51
2022-10-02T22:58:00.134Z,90.61
2022-10-02T23:00:33.033Z,90.58
2022-10-02T23:03:36.488Z,90.64
2022-10-02T23:06:18.933Z,90.73
2022-10-02T23:09:01.796Z,90.96
2022-10-02T23:11:42.075Z,90.95
2022-10-02T23:14:25.326Z,90.91
2022-10-02T23:17:01.340Z,90.94
2022-10-02T23:19:46.779Z,90.72
2022-10-02T23:22:24.003Z,90.69
2022-10-02T23:25:01.000Z,91.14
2022-10-02T23:27:58.309Z,91.09
2022-10-02T23:30:25.287Z,90.69
2022-10-02T23:33:05.097Z,90.70
2022-10-02T23:35:50.269Z,90.95
2022-10-02T23:38:38.593Z,90.75
2022-10-02T23:41:40.618Z,90.60
2022-10-02T23:44:32.110Z,90.58
2022-10-02T23:47:23.354Z,90.80
2022-10-02T23:49:55.000Z,90.85
2022-10-02T23:52:50.160Z,90.91
2022-10-02T23:55:37.353Z,90.84
2022-10-02T23:58:13.693Z,90.53
